createdAt,value
2024-02-09T00:00:26.888Z,1.15
2024-02-09T00:02:28.401Z,1.20
2024-02-09T00:04:29.959Z,0.95
2024-02-09T00:06:31.520Z,0.73
2024-02-09T00:08:33.498Z,0.50
2024-02-09T00:10:39.225Z,0.63
2024-02-09T00:12:42.147Z,0.80
2024-02-09T00:14:43.900Z,0.93
2024-02-09T00:16:45.514Z,1.40
2024-02-09T00:18:47.007Z,0.63
2024-02-09T00:20:49.101Z,0.63
2024-02-09T00:22:50.696Z,0.85
2024-02-09T00:24:52.257Z,0.50
2024-02-09T00:26:53.708Z,0.70
2024-02-09T00:28:55.166Z,0.32
2024-02-09T00:30:57.149Z,0.65
2024-02-09T00:33:04.616Z,0.60
2024-02-09T00:35:09.410Z,0.63
2024-02-09T00:37:11.124Z,0.80
2024-02-09T00:39:13.000Z,0.47
2024-02-09T00:41:17.881Z,0.60
2024-02-09T00:43:20.384Z,0.30
2024-02-09T00:45:21.805Z,0.55
2024-02-09T00:47:23.546Z,0.55
2024-02-09T00:49:25.188Z,0.60
2024-02-09T00:51:26.703Z,0.50
2024-02-09T00:53:28.183Z,0.55
2024-02-09T00:55:30.805Z,0.40
2024-02-09T00:57:32.519Z,0.75
2024-02-09T00:59:34.777Z,0.38
2024-02-09T01:01:39.977Z,0.45
2024-02-09T01:03:43.042Z,0.57
2024-02-09T01:05:44.709Z,0.70
2024-02-09T01:07:47.848Z,0.60
2024-02-09T01:09:49.403Z,0.80
2024-02-09T01:11:50.875Z,0.30
2024-02-09T01:14:10.803Z,0.63
2024-02-09T01:16:31.084Z,0.50
2024-02-09T01:18:51.473Z,0.68
2024-02-09T01:21:11.726Z,0.50
2024-02-09T01:23:31.546Z,0.30
2024-02-09T01:25:51.470Z,0.47
2024-02-09T01:28:11.482Z,0.43
2024-02-09T01:30:31.536Z,0.50
2024-02-09T01:32:51.762Z,0.43
2024-02-09T01:35:12.412Z,0.50
2024-02-09T01:37:32.372Z,0.52
2024-02-09T01:39:52.520Z,0.30
2024-02-09T01:42:12.403Z,1.20
2024-02-09T01:44:32.447Z,0.57
2024-02-09T01:46:52.694Z,0.30
2024-02-09T01:49:13.071Z,0.50
2024-02-09T01:51:33.541Z,0.50
2024-02-09T01:53:53.753Z,0.70
2024-02-09T01:56:14.470Z,0.90
2024-02-09T01:58:35.143Z,1.10
2024-02-09T02:00:55.934Z,0.63
2024-02-09T02:03:16.175Z,0.40
2024-02-09T02:12:47.044Z,0.63
2024-02-09T02:15:07.064Z,0.60
2024-02-09T02:17:26.952Z,0.70
2024-02-09T02:19:47.065Z,0.60
2024-02-09T02:22:27.402Z,0.70
2024-02-09T02:24:48.466Z,0.40
2024-02-09T02:29:29.426Z,0.40
2024-02-09T02:31:49.722Z,0.50
2024-02-09T02:34:10.253Z,0.55
2024-02-09T02:36:30.556Z,0.40
2024-02-09T02:38:50.712Z,0.45
2024-02-09T02:41:11.041Z,0.40
2024-02-09T02:43:12.517Z,0.30
2024-02-09T02:45:14.307Z,0.40
2024-02-09T02:47:17.833Z,0.68
2024-02-09T02:49:38.248Z,0.60
2024-02-09T02:52:01.721Z,0.30
2024-02-09T02:54:22.026Z,0.65
2024-02-09T02:56:52.544Z,0.30
2024-02-09T02:59:12.688Z,0.30
2024-02-09T03:01:32.653Z,0.47
2024-02-09T03:03:53.004Z,0.43
2024-02-09T03:05:54.506Z,0.98
2024-02-09T03:10:03.728Z,0.30
2024-02-09T03:12:05.384Z,0.55
2024-02-09T03:14:06.861Z,0.40
2024-02-09T03:16:08.395Z,0.40
2024-02-09T03:20:16.297Z,1.02
2024-02-09T03:22:18.361Z,0.30
2024-02-09T03:24:19.877Z,0.60
2024-02-09T03:39:23.567Z,0.73
2024-02-09T03:41:26.610Z,0.40
2024-02-09T03:43:28.113Z,0.60
2024-02-09T03:45:30.352Z,0.40
2024-02-09T03:47:32.617Z,0.68
2024-02-09T03:49:34.289Z,0.43
2024-02-09T03:51:36.385Z,0.68
2024-02-09T03:53:37.842Z,0.50
2024-02-09T03:55:41.298Z,0.20
2024-02-09T03:57:43.255Z,0.60
2024-02-09T03:59:44.994Z,0.63
2024-02-09T04:01:46.998Z,0.30
2024-02-09T04:03:48.659Z,0.35
2024-02-09T04:05:50.385Z,0.32
2024-02-09T04:07:52.334Z,0.30
2024-02-09T04:10:15.681Z,0.20
2024-02-09T04:12:15.267Z,0.30
2024-02-09T04:14:17.802Z,0.35
2024-02-09T04:16:20.204Z,0.40
2024-02-09T04:18:22.842Z,0.65
2024-02-09T04:20:24.772Z,0.40
2024-02-09T04:22:28.713Z,0.50
2024-02-09T04:24:30.646Z,0.63
2024-02-09T04:26:32.601Z,0.40
2024-02-09T04:28:34.090Z,0.40
2024-02-09T04:30:35.627Z,0.32
2024-02-09T04:32:39.081Z,0.30
2024-02-09T04:34:40.889Z,0.40
2024-02-09T04:36:44.091Z,1.00
2024-02-09T04:38:45.602Z,0.30
2024-02-09T04:40:47.312Z,0.35
2024-02-09T04:42:50.062Z,0.50
2024-02-09T04:44:53.838Z,0.43
2024-02-09T04:46:55.328Z,0.32
2024-02-09T04:48:56.871Z,0.40
2024-02-09T04:50:58.440Z,0.28
2024-02-09T04:52:59.893Z,1.35
2024-02-09T04:55:01.480Z,0.30
2024-02-09T04:57:03.227Z,0.45
2024-02-09T04:59:11.799Z,0.30
2024-02-09T05:01:13.378Z,0.30
2024-02-09T05:03:17.692Z,0.30
2024-02-09T05:05:19.797Z,0.50
2024-02-09T05:07:23.255Z,0.60
2024-02-09T05:09:30.760Z,0.43
2024-02-09T05:11:34.256Z,0.50
2024-02-09T05:13:38.745Z,0.50
2024-02-09T05:15:40.341Z,0.30
2024-02-09T05:17:41.903Z,0.30
2024-02-09T05:19:43.664Z,0.32
2024-02-09T05:21:45.387Z,0.47
2024-02-09T05:23:47.069Z,0.35
2024-02-09T05:25:48.703Z,1.20
2024-02-09T05:27:50.430Z,0.30
2024-02-09T05:29:52.292Z,0.55
2024-02-09T05:31:54.323Z,0.30
2024-02-09T05:33:55.935Z,0.30
2024-02-09T05:35:57.359Z,0.30
2024-02-09T05:37:58.838Z,0.30
2024-02-09T05:40:02.151Z,0.30
2024-02-09T05:42:06.334Z,0.50
2024-02-09T05:44:08.343Z,0.47
2024-02-09T05:46:09.915Z,0.60
2024-02-09T05:48:14.347Z,0.40
2024-02-09T05:50:23.741Z,0.28
2024-02-09T05:52:29.306Z,0.85
2024-02-09T05:54:30.900Z,0.30
2024-02-09T05:56:32.501Z,0.38
2024-02-09T05:58:35.752Z,0.30
2024-02-09T06:00:37.342Z,0.40
2024-02-09T06:02:39.016Z,0.50
2024-02-09T06:04:41.143Z,0.40
2024-02-09T06:06:46.510Z,0.30
2024-02-09T06:08:48.388Z,0.50
2024-02-09T06:10:51.111Z,0.30
2024-02-09T06:12:52.660Z,0.50
2024-02-09T06:15:00.870Z,0.60
2024-02-09T06:17:02.298Z,0.45
2024-02-09T06:19:04.266Z,0.47
2024-02-09T06:21:06.097Z,0.47
2024-02-09T06:23:08.133Z,0.60
2024-02-09T06:25:09.691Z,0.25
2024-02-09T06:27:13.027Z,0.70
2024-02-09T06:29:15.041Z,0.45
2024-02-09T06:31:17.375Z,1.38
2024-02-09T06:33:22.646Z,0.52
2024-02-09T06:35:24.208Z,0.93
2024-02-09T06:37:26.003Z,0.30
2024-02-09T06:39:27.470Z,0.35
2024-02-09T06:41:30.682Z,0.45
2024-02-09T06:43:32.806Z,0.32
2024-02-09T06:45:37.041Z,0.40
2024-02-09T06:47:39.279Z,0.43
2024-02-09T06:49:44.901Z,0.43
2024-02-09T06:51:46.720Z,0.45
2024-02-09T06:53:48.325Z,0.52
2024-02-09T06:55:54.328Z,0.50
2024-02-09T06:57:56.204Z,0.40
2024-02-09T06:59:57.628Z,0.30
2024-02-09T07:02:00.749Z,0.57
2024-02-09T07:04:02.494Z,0.40
2024-02-09T07:06:08.840Z,0.35
2024-02-09T07:08:10.756Z,0.40
2024-02-09T07:10:13.060Z,0.40
2024-02-09T07:12:17.239Z,0.60
2024-02-09T07:14:19.589Z,0.40
2024-02-09T07:16:21.115Z,0.60
2024-02-09T07:18:22.631Z,0.98
2024-02-09T07:20:24.646Z,0.60
2024-02-09T07:22:26.257Z,0.30
2024-02-09T07:24:27.721Z,0.57
2024-02-09T07:26:29.120Z,0.30
2024-02-09T07:28:30.673Z,0.40
2024-02-09T07:30:32.128Z,0.45
2024-02-09T07:32:33.800Z,0.40
2024-02-09T07:34:35.400Z,0.50
2024-02-09T07:36:37.478Z,0.85
2024-02-09T07:38:39.079Z,0.60
2024-02-09T07:40:40.652Z,0.30
2024-02-09T07:42:42.815Z,0.32
2024-02-09T07:46:50.939Z,0.63
2024-02-09T07:48:53.244Z,0.20
2024-02-09T07:50:54.925Z,0.38
2024-02-09T07:52:56.734Z,0.50
2024-02-09T07:54:58.246Z,0.45
2024-02-09T07:59:06.424Z,0.60
2024-02-09T08:01:08.178Z,0.40
2024-02-09T08:03:11.937Z,0.45
2024-02-09T08:05:19.608Z,0.40
2024-02-09T08:07:22.006Z,0.68
2024-02-09T08:09:23.614Z,0.35
2024-02-09T08:11:25.097Z,0.40
2024-02-09T08:13:26.660Z,0.40
2024-02-09T08:15:28.250Z,0.32
2024-02-09T08:17:32.229Z,0.50
2024-02-09T08:19:36.469Z,1.17
2024-02-09T08:21:40.251Z,0.32
2024-02-09T08:25:48.417Z,0.40
2024-02-09T08:27:50.029Z,0.30
2024-02-09T08:29:56.265Z,0.32
2024-02-09T08:34:04.504Z,0.73
2024-02-09T08:36:06.776Z,0.30
2024-02-09T08:38:08.982Z,0.70
2024-02-09T08:40:10.614Z,0.40
2024-02-09T08:42:12.461Z,0.30
2024-02-09T08:44:13.927Z,0.40
2024-02-09T08:46:15.589Z,0.30
2024-02-09T08:48:20.288Z,0.35
2024-02-09T08:50:22.324Z,0.35
2024-02-09T08:52:23.875Z,0.50
2024-02-09T08:54:25.533Z,0.30
2024-02-09T08:56:27.042Z,0.32
2024-02-09T08:58:28.582Z,0.52
2024-02-09T09:00:30.199Z,0.30
2024-02-09T09:02:32.008Z,0.40
2024-02-09T09:06:36.550Z,0.47
2024-02-09T09:08:38.127Z,0.30
2024-02-09T09:10:39.856Z,0.68
2024-02-09T09:12:41.344Z,0.57
2024-02-09T09:14:43.356Z,0.50
2024-02-09T09:16:45.436Z,0.30
2024-02-09T09:18:47.178Z,0.50
2024-02-09T09:20:48.768Z,0.50
2024-02-09T09:22:51.656Z,0.20
2024-02-09T09:24:53.193Z,0.38
2024-02-09T09:26:56.291Z,0.50
2024-02-09T09:28:58.195Z,0.32
2024-02-09T09:31:00.065Z,0.32
2024-02-09T09:33:02.132Z,0.63
2024-02-09T09:35:03.916Z,0.30
2024-02-09T09:37:05.833Z,0.40
2024-02-09T09:39:07.505Z,0.55
2024-02-09T09:41:10.760Z,0.30
2024-02-09T09:43:17.580Z,0.40
2024-02-09T09:45:20.068Z,0.40
2024-02-09T09:47:21.896Z,0.70
2024-02-09T09:49:30.222Z,0.60
2024-02-09T09:51:34.862Z,0.50
2024-02-09T09:53:39.511Z,0.60
2024-02-09T09:55:42.516Z,1.20
2024-02-09T09:57:43.981Z,0.75
2024-02-09T09:59:45.680Z,0.40
2024-02-09T10:01:50.450Z,0.20
2024-02-09T10:03:53.917Z,0.90
2024-02-09T10:05:56.262Z,0.55
2024-02-09T10:08:00.059Z,0.43
2024-02-09T10:10:02.003Z,0.35
2024-02-09T10:12:06.650Z,0.70
2024-02-09T10:14:16.042Z,0.40
2024-02-09T10:16:18.109Z,0.32
2024-02-09T10:18:20.104Z,0.40
2024-02-09T10:20:21.624Z,0.40
2024-02-09T10:22:27.101Z,0.47
2024-02-09T10:24:29.630Z,0.20
2024-02-09T10:26:31.156Z,0.55
2024-02-09T10:28:34.390Z,0.70
2024-02-09T10:30:38.839Z,0.77
2024-02-09T10:32:43.529Z,0.52
2024-02-09T10:34:45.307Z,0.77
2024-02-09T10:36:48.059Z,0.43
2024-02-09T10:38:49.728Z,0.65
2024-02-09T10:40:54.405Z,0.30
2024-02-09T10:42:57.317Z,0.70
2024-02-09T10:45:05.241Z,0.32
2024-02-09T10:47:12.174Z,0.43
2024-02-09T10:49:15.098Z,0.77
2024-02-09T10:51:19.224Z,0.30
2024-02-09T10:53:25.081Z,0.65
2024-02-09T10:55:29.450Z,0.60
2024-02-09T10:57:34.540Z,0.68
2024-02-09T10:59:38.701Z,0.68
2024-02-09T11:01:40.344Z,0.30
2024-02-09T11:03:42.394Z,0.63
2024-02-09T11:05:44.388Z,0.52
2024-02-09T11:07:47.144Z,0.85
2024-02-09T11:09:48.798Z,0.88
2024-02-09T11:11:50.449Z,0.90
2024-02-09T11:13:52.001Z,0.30
2024-02-09T11:16:00.880Z,0.30
2024-02-09T11:18:05.487Z,0.30
2024-02-09T11:20:10.685Z,0.70
2024-02-09T11:22:12.982Z,0.85
2024-02-09T11:24:18.565Z,0.65
2024-02-09T11:26:22.197Z,0.70
2024-02-09T11:28:23.676Z,0.40
2024-02-09T11:30:25.368Z,0.40
2024-02-09T11:32:28.434Z,0.60
2024-02-09T11:34:30.990Z,0.60
2024-02-09T11:36:32.604Z,0.40
2024-02-09T11:38:34.711Z,1.20
2024-02-09T11:40:37.620Z,0.80
2024-02-09T11:42:40.160Z,0.52
2024-02-09T11:44:41.798Z,0.93
2024-02-09T11:46:43.382Z,0.70
2024-02-09T11:48:44.944Z,0.60
2024-02-09T11:50:46.576Z,0.57
2024-02-09T11:53:00.965Z,0.80
2024-02-09T11:55:09.675Z,0.82
2024-02-09T11:57:13.022Z,0.50
2024-02-09T11:59:15.669Z,0.63
2024-02-09T12:01:21.533Z,0.88
2024-02-09T12:03:23.210Z,0.70
2024-02-09T12:05:24.763Z,0.73
2024-02-09T12:07:26.994Z,0.77
2024-02-09T12:09:31.190Z,0.68
2024-02-09T12:11:32.822Z,0.93
2024-02-09T12:13:34.957Z,0.60
2024-02-09T12:15:36.465Z,0.63
2024-02-09T12:17:38.885Z,0.60
2024-02-09T12:19:41.335Z,0.60
2024-02-09T12:21:43.692Z,0.40
2024-02-09T12:23:45.870Z,0.70
2024-02-09T12:25:47.527Z,0.93
2024-02-09T12:27:49.434Z,0.60
2024-02-09T12:29:51.216Z,0.60
2024-02-09T12:31:53.030Z,0.60
2024-02-09T12:33:56.236Z,1.05
2024-02-09T12:36:08.998Z,0.63
2024-02-09T12:38:11.302Z,0.40
2024-02-09T12:40:15.940Z,0.57
2024-02-09T12:42:23.443Z,1.00
2024-02-09T12:44:29.081Z,0.63
2024-02-09T12:46:30.702Z,0.55
2024-02-09T12:48:32.504Z,0.65
2024-02-09T12:50:35.240Z,0.98
2024-02-09T12:52:38.056Z,0.40
2024-02-09T12:54:39.622Z,0.60
2024-02-09T12:56:41.537Z,0.50
2024-02-09T12:58:43.205Z,0.50
2024-02-09T13:00:45.289Z,0.70
2024-02-09T13:02:46.956Z,0.75
2024-02-09T13:04:48.623Z,1.23
2024-02-09T13:06:50.287Z,1.65
2024-02-09T13:08:51.889Z,3.95
2024-02-09T13:10:53.457Z,5.00
2024-02-09T13:12:55.484Z,5.22
2024-02-09T13:15:00.151Z,4.93
2024-02-09T13:17:01.929Z,4.45
2024-02-09T13:19:03.581Z,4.00
2024-02-09T13:21:05.301Z,3.47
2024-02-09T13:23:07.355Z,3.55
2024-02-09T13:25:15.742Z,3.05
2024-02-09T13:27:17.539Z,4.28
2024-02-09T13:29:19.336Z,2.17
2024-02-09T13:31:20.821Z,2.53
2024-02-09T13:33:22.839Z,2.17
2024-02-09T13:35:25.311Z,1.80
2024-02-09T13:37:26.848Z,3.10
2024-02-09T13:39:28.348Z,1.88
2024-02-09T13:41:30.105Z,1.75
2024-02-09T13:43:32.408Z,2.25
2024-02-09T13:45:34.778Z,1.10
2024-02-09T13:47:36.758Z,0.95
2024-02-09T13:49:41.229Z,1.75
2024-02-09T13:51:42.808Z,1.58
2024-02-09T13:53:45.689Z,0.90
2024-02-09T13:55:47.288Z,1.88
2024-02-09T13:57:49.653Z,1.65
2024-02-09T13:59:51.675Z,0.95
2024-02-09T14:01:53.420Z,1.10
2024-02-09T14:03:55.667Z,1.10
2024-02-09T14:05:57.242Z,1.00
2024-02-09T14:07:59.363Z,2.53
2024-02-09T14:10:00.800Z,2.28
2024-02-09T14:12:02.538Z,1.42
2024-02-09T14:14:04.074Z,1.23
2024-02-09T14:16:07.592Z,2.78
2024-02-09T14:18:10.969Z,2.15
2024-02-09T14:20:15.255Z,1.15
2024-02-09T14:22:19.427Z,0.73
2024-02-09T14:24:20.966Z,0.77
2024-02-09T14:26:23.071Z,0.73
2024-02-09T14:28:28.527Z,1.23
2024-02-09T14:30:30.445Z,1.02
2024-02-09T14:32:33.402Z,0.85
2024-02-09T14:34:35.352Z,1.13
2024-02-09T14:36:36.991Z,1.08
2024-02-09T14:38:38.588Z,0.70
2024-02-09T14:40:40.028Z,0.93
2024-02-09T14:42:41.447Z,0.60
2024-02-09T14:44:47.430Z,0.60
2024-02-09T14:46:50.509Z,0.90
2024-02-09T14:48:52.220Z,1.10
2024-02-09T14:50:54.050Z,1.33
2024-02-09T14:52:58.734Z,1.83
2024-02-09T14:55:00.249Z,1.35
2024-02-09T14:57:01.713Z,0.85
2024-02-09T14:59:04.752Z,1.25
2024-02-09T15:01:07.319Z,1.00
2024-02-09T15:03:09.075Z,0.80
2024-02-09T15:05:15.998Z,0.57
2024-02-09T15:07:20.969Z,1.13
2024-02-09T15:09:22.785Z,0.68
2024-02-09T15:11:25.668Z,1.48
2024-02-09T15:13:28.538Z,1.30
2024-02-09T15:15:31.221Z,1.58
2024-02-09T15:17:33.290Z,1.50
2024-02-09T15:19:35.455Z,1.88
2024-02-09T15:21:37.448Z,1.85
2024-02-09T15:23:41.869Z,1.45
2024-02-09T15:25:43.731Z,1.17
2024-02-09T15:27:45.531Z,2.50
2024-02-09T15:29:47.179Z,1.48
2024-02-09T15:31:49.991Z,1.27
2024-02-09T15:33:52.424Z,1.58
2024-02-09T15:35:54.718Z,1.10
2024-02-09T15:37:56.328Z,1.30
2024-02-09T15:39:58.084Z,1.00
2024-02-09T15:42:01.576Z,0.85
2024-02-09T15:44:03.061Z,0.90
2024-02-09T15:46:04.733Z,0.90
2024-02-09T15:48:07.317Z,0.73
2024-02-09T15:50:08.865Z,0.65
2024-02-09T15:52:10.332Z,0.77
2024-02-09T15:54:12.636Z,0.73
2024-02-09T15:56:14.684Z,0.85
2024-02-09T15:58:20.570Z,0.80
2024-02-09T16:00:24.155Z,2.13
2024-02-09T16:02:26.486Z,0.98
2024-02-09T16:04:29.719Z,0.73
2024-02-09T16:06:31.745Z,1.60
2024-02-09T16:08:33.295Z,0.80
2024-02-09T16:10:36.002Z,0.77
2024-02-09T16:12:37.627Z,2.35
2024-02-09T16:14:40.115Z,1.25
2024-02-09T16:16:41.757Z,0.80
2024-02-09T16:18:43.331Z,1.20
2024-02-09T16:20:44.789Z,1.48
2024-02-09T16:22:47.105Z,1.02
2024-02-09T16:24:48.835Z,1.00
2024-02-09T16:26:50.832Z,0.95
2024-02-09T16:28:52.763Z,0.95
2024-02-09T16:30:54.385Z,1.58
2024-02-09T16:32:55.921Z,1.35
2024-02-09T16:34:59.834Z,0.80
2024-02-09T16:37:05.939Z,0.60
2024-02-09T16:39:07.565Z,1.15
2024-02-09T16:41:11.632Z,0.70
2024-02-09T16:43:19.873Z,1.27
2024-02-09T16:45:21.335Z,0.70
2024-02-09T16:47:23.893Z,1.20
2024-02-09T16:49:28.608Z,0.63
2024-02-09T16:51:30.173Z,0.50
2024-02-09T16:53:32.055Z,0.63
2024-02-09T16:55:33.595Z,0.60
2024-02-09T16:57:35.091Z,0.68
2024-02-09T16:59:39.720Z,0.55
2024-02-09T17:01:41.257Z,0.50
2024-02-09T17:03:43.326Z,0.50
2024-02-09T17:05:45.103Z,0.57
2024-02-09T17:07:46.706Z,0.25
2024-02-09T17:09:48.307Z,0.50
2024-02-09T17:11:50.191Z,0.50
2024-02-09T17:13:51.906Z,0.50
2024-02-09T17:15:53.401Z,0.50
2024-02-09T17:17:56.535Z,1.10
2024-02-09T17:19:58.181Z,0.93
2024-02-09T17:21:59.768Z,0.55
2024-02-09T17:24:01.381Z,0.70
2024-02-09T17:26:03.178Z,1.17
2024-02-09T17:28:06.211Z,2.20
2024-02-09T17:30:08.263Z,2.53
2024-02-09T17:32:11.695Z,3.00
2024-02-09T17:34:13.579Z,3.45
2024-02-09T17:36:16.299Z,3.60
2024-02-09T17:38:17.821Z,3.35
2024-02-09T17:40:20.939Z,4.13
2024-02-09T17:42:22.507Z,2.90
2024-02-09T17:44:24.093Z,2.92
2024-02-09T17:46:26.162Z,2.60
2024-02-09T17:48:27.694Z,3.33
2024-02-09T17:50:30.505Z,2.33
2024-02-09T17:52:32.008Z,1.80
2024-02-09T17:54:33.622Z,2.00
2024-02-09T17:56:35.046Z,1.52
2024-02-09T17:58:36.794Z,1.50
2024-02-09T18:00:38.934Z,1.17
2024-02-09T18:02:40.449Z,1.20
2024-02-09T18:04:42.324Z,1.00
2024-02-09T18:06:43.830Z,1.25
2024-02-09T18:08:45.392Z,0.73
2024-02-09T18:10:46.920Z,0.80
2024-02-09T18:12:51.131Z,0.75
2024-02-09T18:14:52.617Z,0.80
2024-02-09T18:16:54.161Z,0.57
2024-02-09T18:18:55.783Z,0.90
2024-02-09T18:20:57.881Z,0.77
2024-02-09T18:23:02.108Z,0.57
2024-02-09T18:25:04.042Z,0.45
2024-02-09T18:27:05.810Z,0.70
2024-02-09T18:29:07.335Z,0.57
2024-02-09T18:31:09.285Z,0.63
2024-02-09T18:35:18.950Z,0.50
2024-02-09T18:37:20.564Z,0.40
2024-02-09T18:39:22.118Z,0.60
2024-02-09T18:41:23.879Z,0.40
2024-02-09T18:47:34.586Z,0.40
2024-02-09T18:49:37.943Z,0.55
2024-02-09T18:51:39.377Z,0.60
2024-02-09T18:53:42.257Z,0.40
2024-02-09T18:59:56.587Z,0.50
2024-02-09T19:01:58.209Z,0.30
2024-02-09T19:04:00.330Z,0.30
2024-02-09T19:06:03.013Z,0.40
2024-02-09T19:08:06.996Z,0.40
2024-02-09T19:10:08.819Z,0.28
2024-02-09T19:12:10.418Z,0.40
2024-02-09T19:14:13.504Z,0.50
2024-02-09T19:16:15.134Z,0.50
2024-02-09T19:20:25.069Z,0.50
2024-02-09T19:22:27.179Z,0.30
2024-02-09T19:24:28.954Z,0.65
2024-02-09T19:26:34.671Z,1.05
2024-02-09T19:28:36.688Z,0.35
2024-02-09T19:30:41.575Z,0.60
2024-02-09T19:32:46.838Z,0.45
2024-02-09T19:34:48.875Z,0.60
2024-02-09T19:36:51.705Z,0.30
2024-02-09T19:38:53.121Z,0.95
2024-02-09T19:40:55.500Z,0.55
2024-02-09T19:42:57.104Z,0.22
2024-02-09T19:44:58.610Z,0.50
2024-02-09T19:47:02.129Z,0.50
2024-02-09T19:49:05.808Z,0.40
2024-02-09T19:51:09.101Z,0.38
2024-02-09T19:53:10.717Z,0.30
2024-02-09T19:55:12.663Z,0.40
2024-02-09T19:57:14.287Z,0.57
2024-02-09T19:59:16.102Z,0.50
2024-02-09T20:01:17.774Z,0.40
2024-02-09T20:03:25.055Z,0.50
2024-02-09T20:05:28.028Z,0.88
2024-02-09T20:07:29.673Z,0.40
2024-02-09T20:09:31.134Z,0.65
2024-02-09T20:11:32.698Z,0.57
2024-02-09T20:13:35.161Z,0.52
2024-02-09T20:15:38.999Z,0.52
2024-02-09T20:17:42.847Z,0.57
2024-02-09T20:19:44.457Z,0.45
2024-02-09T20:21:46.016Z,0.30
2024-02-09T20:23:48.357Z,0.75
2024-02-09T20:25:49.939Z,0.50
2024-02-09T20:27:51.686Z,0.57
2024-02-09T20:29:54.585Z,0.82
2024-02-09T20:31:56.486Z,0.50
2024-02-09T20:33:58.623Z,0.55
2024-02-09T20:36:01.309Z,0.55
2024-02-09T20:38:06.698Z,0.50
2024-02-09T20:40:09.057Z,0.70
2024-02-09T20:42:10.826Z,0.60
2024-02-09T20:44:14.057Z,0.50
2024-02-09T20:46:16.953Z,0.50
2024-02-09T20:48:19.576Z,0.50
2024-02-09T20:50:21.217Z,0.52
2024-02-09T20:52:25.423Z,0.40
2024-02-09T20:54:26.989Z,0.50
2024-02-09T20:56:29.734Z,0.75
2024-02-09T20:58:33.341Z,0.55
2024-02-09T21:00:40.091Z,0.80
2024-02-09T21:02:42.896Z,0.40
2024-02-09T21:04:47.088Z,0.50
2024-02-09T21:06:48.902Z,0.73
2024-02-09T21:08:50.466Z,0.52
2024-02-09T21:10:52.061Z,0.60
2024-02-09T21:12:53.791Z,0.47
2024-02-09T21:14:55.655Z,0.75
2024-02-09T21:16:57.754Z,0.57
2024-02-09T21:18:59.928Z,0.70
2024-02-09T21:21:01.866Z,0.60
2024-02-09T21:23:03.421Z,0.52
2024-02-09T21:25:05.202Z,0.65
2024-02-09T21:27:06.666Z,0.60
2024-02-09T21:29:08.169Z,0.73
2024-02-09T21:31:09.690Z,0.40
2024-02-09T21:33:11.480Z,0.63
2024-02-09T21:35:14.554Z,0.63
2024-02-09T21:37:17.438Z,0.50
2024-02-09T21:39:18.947Z,0.57
2024-02-09T21:41:20.361Z,0.55
2024-02-09T21:43:25.538Z,0.40
2024-02-09T21:45:27.264Z,0.50
2024-02-09T21:47:33.297Z,0.82
2024-02-09T21:49:37.348Z,0.50
2024-02-09T21:51:39.022Z,0.85
2024-02-09T21:53:40.698Z,0.50
2024-02-09T21:55:43.173Z,0.68
2024-02-09T21:57:44.654Z,0.65
2024-02-09T21:59:46.615Z,0.43
2024-02-09T22:01:48.112Z,0.50
2024-02-09T22:03:49.895Z,0.50
2024-02-09T22:05:54.038Z,0.60
2024-02-09T22:07:57.152Z,0.40
2024-02-09T22:09:58.619Z,0.90
2024-02-09T22:12:00.430Z,0.73
2024-02-09T22:14:02.209Z,0.75
2024-02-09T22:16:05.443Z,0.50
2024-02-09T22:18:07.258Z,0.70
2024-02-09T22:20:10.820Z,0.60
2024-02-09T22:22:15.593Z,0.60
2024-02-09T22:24:17.694Z,0.75
2024-02-09T22:26:21.741Z,0.55
2024-02-09T22:28:23.307Z,0.60
2024-02-09T22:30:24.867Z,0.50
2024-02-09T22:32:26.353Z,0.50
2024-02-09T22:34:31.009Z,0.50
2024-02-09T22:38:40.682Z,0.60
2024-02-09T22:40:42.145Z,0.50
2024-02-09T22:42:44.696Z,0.40
2024-02-09T22:44:47.470Z,0.40
2024-02-09T22:53:04.378Z,0.63
2024-02-09T22:55:06.159Z,0.43
2024-02-09T22:57:14.242Z,0.70
2024-02-09T22:59:17.699Z,0.73
2024-02-09T23:03:25.661Z,0.40
2024-02-09T23:05:30.799Z,0.30
2024-02-09T23:07:33.220Z,0.65
2024-02-09T23:09:34.840Z,0.50
2024-02-09T23:11:36.293Z,0.68
2024-02-09T23:15:44.159Z,0.50
2024-02-09T23:17:48.034Z,0.40
2024-02-09T23:19:50.879Z,0.40
2024-02-09T23:21:52.678Z,0.55
2024-02-09T23:23:55.240Z,0.50
2024-02-09T23:25:56.770Z,0.50
2024-02-09T23:27:58.581Z,0.50
2024-02-09T23:30:00.387Z,0.70
2024-02-09T23:32:03.375Z,0.65
2024-02-09T23:34:04.884Z,0.52
2024-02-09T23:38:14.274Z,0.50
2024-02-09T23:40:15.885Z,0.70
2024-02-09T23:42:19.153Z,0.70
2024-02-09T23:44:24.444Z,0.50
2024-02-09T23:48:34.082Z,0.50
2024-02-09T23:50:35.720Z,0.65
2024-02-09T23:52:38.957Z,0.30
2024-02-09T23:54:40.602Z,0.55
2024-02-09T23:56:45.540Z,0.40
2024-02-09T23:58:47.894Z,0.50
